Edgard, LA (70049)

4:05 AM CDT en Agosto 28, 2014 (GMT -0500)
KA5ZCI River Forest | Change Station
CLOSE
Current Station
Estación meteorológica personal
Location: Laplace, LA
Altura: 6 ft
Estaciones meteorológicas cercanas

Alt 6 ft 30.06 °N, 90.45 °W | Updated 2 seconds ago

Muy nublado
Muy nublado
75.7 ° F
Sensación térmica 75 ° F
N
0.0
Viento Variable Viento desde ESE
Gusts 0.0 mph

Hoy
Alta -- | Baja -- ° F
--% Posibilidad de precipitaciones
Ayer
Alta -- | Baja -- ° F
Precip. -- pul
6:37 AM 7:29 PM
Creciente, 7% visible
Presión 29.98 pul
Visibilidad 10.0 Millas
Nubes Baja 11000 ft
Muy nublado 25000 ft
Índice de calor 75 ° F
Punto de rocío 74 ° F
Humedad 96%
Precipitaciones 0.00 pul
Espesor de la nieve No disponible.
UV 0 de una escala de 12
Polen 7.60 de una escala de 12
PM2.5 Buena
Flu Activity No disponible.
METAR KMSY 280853Z 08003KT 10SM FEW110 BKN250 27/23 A2996 RMK AO2 SLP150 T02720233 56009

More Conditions Fewer Conditions

Presión 29.98 pul
Visibilidad 10.0 Millas
Nubes Baja 11000 ft
Muy nublado 25000 ft
Índice de calor 75 ° F
Punto de rocío 74 ° F
Humedad 96%
Precipitaciones 0.00 pul
Espesor de la nieve No disponible.
UV 0 de una escala de 12
Polen 7.60 de una escala de 12
PM2.5 Buena
Flu Activity No disponible.
METAR KMSY 280853Z 08003KT 10SM FEW110 BKN250 27/23 A2996 RMK AO2 SLP150 T02720233 56009

More Conditions Fewer Conditions

10-Day Weather Forecast

Almanac

Astronomía

Aug. 28, 2014 Salida Puesta
Hora real 6:37 AM CDT 7:29 PM CDT
Crepúsculo civil 6:12 AM CDT 7:53 PM CDT
Crepúsculo náutico 5:43 AM CDT 8:22 PM CDT
Crepúsculo astronómico 5:13 AM CDT 8:52 PM CDT
Luna 9:14 AM CDT 9:10 PM CDT
Horas de luz 13h 41m
Horas de luz
12h 52m
Tomorrow will be 1m 42s shorter.
Creciente, 7% of the Moon is Illuminated
Hoy
Creciente
Sep 2
Cuarto creciente
Sep 8
Luna llena
Sep 15
Cuarto menguante
Sep 24
Nueva

Extremos de hoy

Máximos del estado Bajos del estado

Community

WunderPhotos

Upload Photos

1,747,918 ¡fotos cargadas!

Nearby

Calidad del aire

  Calidad del aire Índice AQ Contaminante
Ayer Buena
PM2.5
Ayer Buena
OZONE
Real Buena
PM2.5
Jueves Buena
PM2.5
Jueves Buena
OZONE
Viernes Buena
PM2.5
Viernes Buena
OZONE

Grosos de nieve

Estación Profundido Altura
No tenemos constancia de nieve nueva.

Actividad de terremotos

Ciudad Distance Mag. Tiempo y dato
No hay informes recientes de la actividad sísmica.
Magnitud mínima muestra es 2,5.

Temperaturas de aguas costeras

Lugar Temperatura
New Canal, LA 84.0 ° F
Shell Beach, LA 81.0 ° F
Bayou Gauche, LA 84.9 ° F

Estaciones meteorológicas cercanas